Cape Girardeau, MO

8:52 PM CDT on April 20, 2015 (GMT -0500)
Cape Girardeau Regional | | Change Station
CLOSE
Current Station
Airport
Location: Cape Girardeau,
Elevation: 341 ft
Nearby Weather Stations

Elev 341 ft 37.23 °N, 89.57 °W | Updated 59 minutes ago

Partly Cloudy
Partly Cloudy
56 °F
Feels Like 56 °F
N
8
Wind Variable Wind from NW

Today
High -- | Low -- °F
--% Chance of Precip.
Yesterday
High -- | Low -- °F
Precip. -- in
6:17 AM 7:37 PM
Waxing Crescent, 7% visible
Pressure 29.83 in
Visibility 10.0 miles
Clouds Few 9000 ft
Dew Point 36 °F
Humidity 47%
Rainfall 0.05 in
Snow Depth Not available.
UV 0 out of 12
Pollen 6.00 out of 12
Air Quality Not available.
Flu Activity Local Activity
METAR KCGI 210053Z AUTO 32007KT 10SM FEW090 13/02 A2983 RMK AO2 SLP100 T01330022 TSNO

More Conditions Fewer Conditions

Pressure 29.83 in
Visibility 10.0 miles
Clouds Few 9000 ft
Dew Point 36 °F
Humidity 47%
Rainfall 0.05 in
Snow Depth Not available.
UV 0 out of 12
Pollen 6.00 out of 12
Air Quality Not available.
Flu Activity Local Activity
METAR KCGI 210053Z AUTO 32007KT 10SM FEW090 13/02 A2983 RMK AO2 SLP100 T01330022 TSNO

More Conditions Fewer Conditions

10-Day Weather Forecast

Almanac

Astronomy

Apr. 20, 2015 Rise Set
Actual Time
Civil Twilight
Nautical Twilight
Astronomical Twilight
Moon
Length of Visible Light
Length of Day
Tomorrow will be .
, % of the Moon is Illuminated

Today's Extremes

State Highs State Lows

Community

WunderPhotos

Upload Photos

1,815,276 photos uploaded!

WunderBlogs® & News

Nearby

Air Quality

  Air Quality AQ Index Pollutant
Not available.

Snow Depth

Station Depth Elevation

Earthquake Activity

City Distance Mag. Time & Date
Minimum magnitude displayed is 2.5.

Coastal Water Temperatures

Place Temperature

Stations

Nearby Weather Stations

Station Location Temp. Windchill Dew Point Humidity Wind Precip. Elev Updated Type